Adena, Ohio
Current Conditions -  °F | °C
As of 1:53 AM on Saturday 25 Oct 2014 (Local Time) from KHLG Reporting Station
Clear Clear  
Wind Chill: 44°   Ceiling: Unl
Heat Index: 47°   Visibility: 10mi
Dew Point: 39°   Wind: 6mph
Humidity: 74%   Direction: 200°SSW
Pressure: 30"   Gusts: NA
Location:  40.22°N, 80.87°W
Report Text: KHLG 250553Z AUTO 20005KT 10SM CLR 08/04 A3000 RMK AO2 SLP165 T00830039 10122 20083 58005
Loading
Personal Weather Stations






























Interactive Weather Map
Tropical Storm Tracking
New forecast layout! Learn more

10-Day Weather Forecast

Advertisements
Track Severe Weather on mobile